Rota, Northern Mariana Islands
Current Conditions -  °F | °C
As of 7:50 PM on Monday 20 Oct 2014 (Local Time) from PGRO Reporting Station
Few Clouds Few Clouds  
Wind Chill: 79°   Ceiling: Unl
Heat Index: 82°   Visibility: 7mi
Dew Point: 73°   Wind: 7mph
Humidity: 83%   Direction: 40°NE
Pressure: 29.85"   Gusts: NA
Location:  14.14°N, 145.14°E
Report Text: PGRO 200950Z 04006KT 7SM FEW030 26/23 A2985 RMK LAST
Loading
Personal Weather Stations






























Interactive Weather Map
Tropical Storm Tracking
New forecast layout! Learn more

10-Day Weather Forecast

Advertisements
Track Severe Weather on mobile